Time;durP1;ratioP1;P1;durP2;ratioP2;P2;SDS_P1;SDS_P2;PMS_P1;PMS_P2;Temp;Humidity;BMP_temperature;BMP_pressure;BME280_temperature;BME280_humidity;BME280_pressure;Samples;Min_cycle;Max_cycle;Signal;HPM_P1;HPM_P2
2022/12/15 00:40:35;;;;;;;14.70;5.10;;;-2.30;99.90;;;;;;4961116;28;20043;-61
2022/12/15 00:43:02;;;;;;;13.73;5.55;;;-2.30;99.90;;;;;;4966176;28;20077;-62
2022/12/15 00:48:15;;;;;;;16.77;5.50;;;-2.30;99.90;;;;;;4960315;28;20043;-62
2022/12/15 00:50:53;;;;;;;14.00;4.07;;;-2.30;99.90;;;;;;4969291;28;20137;-62
2022/12/15 01:21:01;;;;;;;11.57;5.03;;;-2.60;99.90;;;;;;4967029;28;20090;-61
2022/12/15 01:23:27;;;;;;;18.63;6.00;;;-2.70;99.90;;;;;;4972543;28;20047;-61
2022/12/15 01:25:55;;;;;;;15.13;5.70;;;-2.70;99.90;;;;;;4972033;28;20050;-63
2022/12/15 01:28:22;;;;;;;12.63;5.15;;;-2.70;99.90;;;;;;4972379;28;20101;-65
2022/12/15 01:30:48;;;;;;;12.00;5.05;;;-2.70;99.90;;;;;;4971808;28;20050;-61
2022/12/15 01:33:16;;;;;;;16.30;5.30;;;-2.70;99.90;;;;;;4972219;28;20138;-61
2022/12/15 01:35:42;;;;;;;16.20;5.32;;;-2.70;99.90;;;;;;4971611;28;20058;-61
2022/12/15 01:38:09;;;;;;;9.73;4.45;;;-2.70;99.90;;;;;;4972031;28;20070;-61
2022/12/15 01:40:45;;;;;;;17.92;5.88;;;-2.80;99.90;;;;;;4971772;28;20232;-60
2022/12/15 01:43:17;;;;;;;14.00;5.30;;;-2.80;99.90;;;;;;4970950;28;20055;-62
2022/12/15 01:45:50;;;;;;;17.40;6.50;;;-2.90;99.90;;;;;;4987153;28;20126;-61
2022/12/15 01:48:32;;;;;;;10.70;4.53;;;-3.00;99.90;;;;;;4967927;28;20082;-60
2022/12/15 01:51:20;;;;;;;15.57;5.90;;;-2.90;99.90;;;;;;4960699;28;20074;-60
2022/12/15 01:54:05;;;;;;;14.68;6.88;;;-2.90;99.90;;;;;;4973883;28;20057;-61
2022/12/15 01:56:35;;;;;;;10.75;4.53;;;-2.90;99.90;;;;;;4974644;28;20078;-60
2022/12/15 01:59:04;;;;;;;20.40;5.60;;;-3.00;99.90;;;;;;4973391;28;20133;-61
2022/12/15 02:01:30;;;;;;;18.13;5.45;;;-3.00;99.90;;;;;;4970615;28;20126;-61
2022/12/15 02:03:57;;;;;;;19.98;5.75;;;-3.00;99.90;;;;;;4971578;28;20043;-61
2022/12/15 02:06:24;;;;;;;15.60;6.38;;;-2.80;99.90;;;;;;4971769;28;20047;-60
2022/12/15 02:08:51;;;;;;;12.13;6.05;;;-3.10;99.90;;;;;;4970612;28;20078;-61
2022/12/15 02:11:27;;;;;;;19.20;5.72;;;-3.10;99.90;;;;;;4970419;28;20505;-62
2022/12/15 02:14:00;;;;;;;9.00;4.38;;;-3.10;99.90;;;;;;4971696;28;20089;-61
2022/12/15 02:16:48;;;;;;;13.02;5.75;;;-3.10;99.90;;;;;;4971602;28;20147;-62
2022/12/15 02:19:33;;;;;;;14.60;4.25;;;-3.10;99.90;;;;;;4965363;28;20098;-60
2022/12/15 02:22:09;;;;;;;;;;;-3.10;99.90;;;;;;4958836;28;20043;-60
2022/12/15 02:24:51;;;;;;;18.33;6.00;;;-3.20;99.90;;;;;;4971441;28;19922;-60
2022/12/15 02:27:50;;;;;;;13.83;5.40;;;-3.20;99.90;;;;;;4971043;28;20051;-61
2022/12/15 02:30:21;;;;;;;8.38;4.88;;;-3.20;99.90;;;;;;4969449;28;20288;-62
2022/12/15 02:33:10;;;;;;;16.80;4.75;;;-3.20;99.90;;;;;;4969484;28;20057;-61
2022/12/15 02:35:50;;;;;;;14.43;5.03;;;-3.30;99.90;;;;;;4971597;28;20050;-62
2022/12/15 02:38:34;;;;;;;14.65;5.70;;;-3.30;99.90;;;;;;4969740;28;20081;-62
2022/12/15 02:41:02;;;;;;;14.90;5.95;;;-3.30;99.90;;;;;;4984761;28;20186;-61
2022/12/15 02:43:29;;;;;;;11.27;6.03;;;-3.30;99.90;;;;;;4625568;28;10000217;-62
2022/12/15 02:46:04;;;;;;;13.10;5.30;;;-3.30;99.90;;;;;;4970070;28;20054;-61
2022/12/15 02:49:05;;;;;;;10.23;4.80;;;-3.20;99.90;;;;;;4968409;28;20046;-63
2022/12/15 02:51:42;;;;;;;15.63;5.57;;;-3.30;99.90;;;;;;4969574;28;20051;-61
2022/12/15 02:54:20;;;;;;;8.25;4.40;;;-3.30;99.90;;;;;;4969539;28;20078;-62
2022/12/15 02:57:23;;;;;;;11.60;4.55;;;-3.30;99.90;;;;;;4950428;29;20089;-61
2022/12/15 03:00:08;;;;;;;10.15;4.78;;;-3.40;99.90;;;;;;4970463;28;20058;-61
2022/12/15 03:02:36;;;;;;;11.38;4.57;;;-3.40;99.90;;;;;;4969737;28;20135;-62
2022/12/15 03:05:03;;;;;;;12.55;5.25;;;-3.50;99.90;;;;;;4969529;28;20046;-61
2022/12/15 03:07:30;;;;;;;10.90;4.88;;;-3.50;99.90;;;;;;4969405;28;20093;-61
2022/12/15 03:09:59;;;;;;;10.30;5.00;;;-3.50;99.90;;;;;;4970207;28;20512;-63
2022/12/15 03:12:26;;;;;;;15.52;5.55;;;-3.50;99.90;;;;;;4969647;28;20105;-61
2022/12/15 03:14:53;;;;;;;12.70;4.75;;;-3.60;99.90;;;;;;4970091;28;20096;-62
2022/12/15 03:17:19;;;;;;;12.25;5.05;;;-3.60;99.90;;;;;;4985095;28;20054;-61
2022/12/15 03:19:46;;;;;;;17.88;5.40;;;-3.60;99.90;;;;;;4968833;28;20500;-60
2022/12/15 03:22:15;;;;;;;11.80;5.20;;;-3.60;99.90;;;;;;4970312;28;20093;-61
2022/12/15 03:24:42;;;;;;;11.32;4.90;;;-3.70;99.90;;;;;;4970107;28;20498;-62
2022/12/15 03:27:09;;;;;;;14.68;4.88;;;-3.70;99.90;;;;;;4970227;28;20046;-61
2022/12/15 03:29:35;;;;;;;16.80;5.32;;;-3.70;99.90;;;;;;4969002;28;20043;-62
2022/12/15 03:32:02;;;;;;;10.57;4.75;;;-3.70;99.90;;;;;;4969997;28;20098;-62
2022/12/15 03:34:29;;;;;;;11.18;5.28;;;-3.70;99.90;;;;;;4969836;28;20070;-61
2022/12/15 03:36:58;;;;;;;9.32;4.57;;;-3.60;99.90;;;;;;4969507;28;20050;-61
2022/12/15 03:39:24;;;;;;;14.98;5.43;;;-3.30;99.90;;;;;;4969937;28;20075;-61
2022/12/15 03:41:51;;;;;;;13.15;4.80;;;-3.70;99.90;;;;;;4985007;28;20074;-62
2022/12/15 03:44:18;;;;;;;20.85;4.82;;;-3.70;99.90;;;;;;4969779;28;20054;-61
2022/12/15 03:46:45;;;;;;;14.07;5.68;;;-3.80;99.90;;;;;;4970224;28;20130;-62
2022/12/15 03:49:11;;;;;;;15.80;5.15;;;-3.90;99.90;;;;;;4969064;28;20133;-62
2022/12/15 03:51:38;;;;;;;13.25;4.88;;;-3.90;99.90;;;;;;4969418;28;20046;-61
2022/12/15 03:54:06;;;;;;;10.30;4.45;;;-3.90;99.90;;;;;;4968823;28;20151;-61
2022/12/15 03:56:33;;;;;;;15.48;6.10;;;-3.80;99.90;;;;;;4969582;28;20051;-62
2022/12/15 03:58:59;;;;;;;14.75;4.88;;;-3.80;99.90;;;;;;4969984;28;20089;-61
2022/12/15 04:01:28;;;;;;;14.80;5.53;;;-3.80;99.90;;;;;;4969595;28;20126;-61
2022/12/15 04:03:56;;;;;;;11.65;5.13;;;-3.60;99.90;;;;;;4966946;28;20053;-62
2022/12/15 04:06:27;;;;;;;10.55;4.88;;;-3.80;99.90;;;;;;4969219;28;20061;-61
2022/12/15 04:08:54;;;;;;;11.32;4.88;;;-3.80;99.90;;;;;;4984831;28;20082;-65
2022/12/15 04:11:21;;;;;;;12.07;4.85;;;-3.80;99.90;;;;;;4969463;28;20589;-62
2022/12/15 04:13:47;;;;;;;15.00;5.07;;;-3.90;99.90;;;;;;4969550;28;20130;-62
2022/12/15 04:16:14;;;;;;;15.35;5.57;;;-3.90;99.90;;;;;;4969425;28;20074;-62
2022/12/15 04:18:45;;;;;;;16.05;4.57;;;-3.90;99.90;;;;;;4969066;28;20446;-62
2022/12/15 04:21:12;;;;;;;9.57;4.70;;;-3.90;99.90;;;;;;4969575;28;20078;-61
2022/12/15 05:32:33;;;;;;;13.95;5.03;;;-4.10;99.90;;;;;;4972279;28;20059;-62
2022/12/15 05:35:00;;;;;;;13.18;4.60;;;-4.10;99.90;;;;;;4970819;28;20043;-62
2022/12/15 05:37:27;;;;;;;12.27;4.60;;;-4.20;99.90;;;;;;4972319;28;20094;-61
2022/12/15 05:39:54;;;;;;;8.70;3.80;;;-4.30;99.90;;;;;;4971987;28;20046;-60
2022/12/15 05:42:21;;;;;;;11.57;4.40;;;-4.30;99.90;;;;;;4972605;28;20125;-61
2022/12/15 05:44:47;;;;;;;20.92;6.20;;;-4.20;99.90;;;;;;4972365;28;20173;-60
2022/12/15 05:47:15;;;;;;;14.48;5.10;;;-4.20;99.90;;;;;;4968913;28;20058;-61
2022/12/15 05:49:42;;;;;;;14.93;5.90;;;-4.20;99.90;;;;;;4965270;28;20077;-60
2022/12/15 05:52:08;;;;;;;12.48;4.72;;;-4.20;99.90;;;;;;4962792;28;20495;-62
2022/12/15 05:54:35;;;;;;;13.15;5.10;;;-4.20;99.90;;;;;;4962941;28;20901;-61
2022/12/15 05:57:02;;;;;;;13.50;5.53;;;-4.20;99.90;;;;;;4972793;28;20097;-60
2022/12/15 05:59:29;;;;;;;12.63;5.55;;;-4.20;99.90;;;;;;4971800;28;20121;-60
2022/12/15 06:01:55;;;;;;;13.88;5.10;;;-4.30;99.90;;;;;;4972590;28;20087;-60
2022/12/15 06:04:25;;;;;;;15.45;6.28;;;-4.30;99.90;;;;;;4972104;28;20047;-63
2022/12/15 06:06:52;;;;;;;10.82;5.20;;;-4.40;99.90;;;;;;4972585;28;20078;-61
2022/12/15 06:09:19;;;;;;;14.40;5.65;;;-4.40;99.90;;;;;;4972272;28;20585;-60
2022/12/15 06:11:45;;;;;;;10.00;5.38;;;-4.40;99.90;;;;;;4972496;28;20043;-60
2022/12/15 06:14:12;;;;;;;16.10;5.82;;;-3.80;99.90;;;;;;4972380;28;20495;-61
2022/12/15 06:16:39;;;;;;;12.82;5.50;;;-4.40;99.90;;;;;;4972416;28;20078;-61
2022/12/15 06:19:16;;;;;;;18.58;6.30;;;-4.40;99.90;;;;;;4953434;28;20051;-60
2022/12/15 06:21:43;;;;;;;10.55;5.28;;;-4.40;99.90;;;;;;4972850;28;20137;-60
2022/12/15 06:24:10;;;;;;;16.33;5.18;;;-4.40;99.90;;;;;;4974149;28;20113;-60
2022/12/15 06:26:37;;;;;;;9.93;6.47;;;-4.30;99.90;;;;;;4973881;28;20105;-63
2022/12/15 06:29:07;;;;;;;17.08;5.13;;;-4.40;99.90;;;;;;4974087;28;20086;-62
2022/12/15 06:31:34;;;;;;;13.63;4.88;;;-4.40;99.90;;;;;;4973765;28;20126;-62
2022/12/15 06:34:03;;;;;;;14.07;5.68;;;-4.30;99.90;;;;;;4973887;28;20062;-63
2022/12/15 06:36:30;;;;;;;14.55;5.05;;;-4.40;99.90;;;;;;4970268;28;20517;-62
2022/12/15 06:38:58;;;;;;;10.65;4.55;;;-4.40;99.90;;;;;;4626207;28;10000018;-62
2022/12/15 06:41:25;;;;;;;14.10;5.70;;;-4.40;99.90;;;;;;4967199;28;20071;-62
2022/12/15 06:43:54;;;;;;;11.60;4.93;;;-4.40;99.90;;;;;;4955269;28;20138;-62
2022/12/15 06:46:21;;;;;;;14.07;4.50;;;-4.40;99.90;;;;;;4958272;28;20066;-61
2022/12/15 06:48:48;;;;;;;15.07;5.70;;;-4.50;99.90;;;;;;4983469;28;20100;-61
2022/12/15 06:51:17;;;;;;;10.63;6.20;;;-4.50;99.90;;;;;;4968220;28;20466;-61
2022/12/15 06:53:47;;;;;;;12.50;4.90;;;-4.50;99.90;;;;;;4968493;28;20069;-61
2022/12/15 06:56:20;;;;;;;19.27;5.82;;;-4.60;99.90;;;;;;4968373;28;20047;-61
2022/12/15 06:58:52;;;;;;;14.15;5.10;;;-4.50;99.90;;;;;;4968266;28;20650;-62
2022/12/15 07:01:20;;;;;;;12.18;4.35;;;-4.50;99.90;;;;;;4966601;28;20098;-61
2022/12/15 07:03:47;;;;;;;12.95;4.38;;;-4.60;99.90;;;;;;4966920;28;20060;-60
2022/12/15 07:06:15;;;;;;;9.57;4.47;;;-4.70;99.90;;;;;;4967902;28;20042;-61
2022/12/15 07:08:42;;;;;;;9.00;4.03;;;-4.70;99.90;;;;;;4967752;28;20066;-60
2022/12/15 07:11:10;;;;;;;14.77;4.88;;;-4.70;99.90;;;;;;4965342;28;20078;-59
2022/12/15 07:13:38;;;;;;;13.40;5.90;;;-4.70;99.90;;;;;;4965068;28;20433;-60
2022/12/15 07:16:05;;;;;;;15.45;5.75;;;-4.60;99.90;;;;;;4966527;28;20051;-60
2022/12/15 07:18:32;;;;;;;16.67;6.13;;;-4.60;99.90;;;;;;4966286;28;20056;-60
2022/12/15 07:21:06;;;;;;;12.48;5.07;;;-4.60;99.90;;;;;;4967361;28;20085;-59
2022/12/15 07:23:33;;;;;;;9.25;4.68;;;-4.60;99.90;;;;;;4967196;28;20062;-61
2022/12/15 07:26:19;;;;;;;10.90;5.75;;;-4.60;99.90;;;;;;4967183;28;20521;-61
2022/12/15 07:28:46;;;;;;;22.58;7.38;;;-4.70;99.90;;;;;;4967228;28;20058;-60
2022/12/15 07:31:14;;;;;;;47.80;7.15;;;-4.70;99.90;;;;;;4967450;28;20086;-60
2022/12/15 07:33:41;;;;;;;21.15;5.18;;;-4.60;99.90;;;;;;4966780;28;20513;-60
2022/12/15 07:36:08;;;;;;;18.50;5.15;;;-4.60;99.90;;;;;;4966870;28;20597;-59
2022/12/15 07:38:35;;;;;;;20.88;7.03;;;-4.70;99.90;;;;;;4966444;28;20090;-57
2022/12/15 07:41:03;;;;;;;15.32;4.68;;;-4.80;99.90;;;;;;4965851;28;20498;-61
2022/12/15 07:43:30;;;;;;;20.35;5.70;;;-4.80;99.90;;;;;;4961135;28;20573;-66
2022/12/15 07:45:57;;;;;;;15.52;6.07;;;-4.80;99.90;;;;;;4981381;28;20050;-59
2022/12/15 07:48:26;;;;;;;17.52;6.53;;;-4.90;99.90;;;;;;4981599;28;20089;-59
2022/12/15 07:50:56;;;;;;;18.50;6.53;;;-5.20;99.90;;;;;;4966983;28;20659;-61
2022/12/15 07:53:34;;;;;;;13.10;5.05;;;-4.90;99.90;;;;;;4966330;28;20051;-60
2022/12/15 07:56:03;;;;;;;14.77;6.25;;;-4.80;99.90;;;;;;4966547;28;20137;-60
2022/12/15 07:58:35;;;;;;;12.70;5.82;;;-4.70;99.90;;;;;;4966646;28;20197;-59
2022/12/15 08:01:07;;;;;;;19.40;6.13;;;-4.70;99.90;;;;;;4965123;28;20046;-59
2022/12/15 08:03:34;;;;;;;15.55;5.38;;;-4.70;99.90;;;;;;4961090;28;20050;-58
2022/12/15 08:06:06;;;;;;;18.23;5.90;;;-4.80;99.90;;;;;;4966546;28;20054;-59
2022/12/15 08:08:33;;;;;;;11.27;5.32;;;-4.80;99.90;;;;;;4964926;28;20092;-59
2022/12/15 08:11:05;;;;;;;20.48;6.97;;;-4.80;99.90;;;;;;4966521;28;20051;-58
2022/12/15 08:13:33;;;;;;;14.40;6.30;;;-4.70;99.90;;;;;;4965998;28;20058;-58
2022/12/15 08:16:20;;;;;;;11.32;5.25;;;-4.60;99.90;;;;;;4957627;28;20137;-59
2022/12/15 08:18:47;;;;;;;18.15;5.85;;;-4.70;99.90;;;;;;4968552;28;20078;-58
2022/12/15 08:21:14;;;;;;;18.02;6.45;;;-4.70;99.90;;;;;;4968946;28;20051;-59
2022/12/15 08:23:41;;;;;;;12.02;5.90;;;-4.70;99.90;;;;;;4970241;28;20227;-60
2022/12/15 08:26:10;;;;;;;12.63;5.88;;;-4.70;99.90;;;;;;4971492;28;20082;-61
2022/12/15 08:28:38;;;;;;;17.05;5.20;;;-4.70;99.90;;;;;;4953688;28;20537;-57
2022/12/15 08:31:09;;;;;;;14.98;5.60;;;-4.80;99.90;;;;;;4962801;28;20043;-59
2022/12/15 08:33:36;;;;;;;18.38;6.72;;;-4.90;99.90;;;;;;4969534;28;20141;-59
2022/12/15 08:36:05;;;;;;;17.67;6.93;;;-4.30;99.90;;;;;;4971842;28;20135;-59
2022/12/15 08:38:32;;;;;;;13.90;5.57;;;-4.90;99.90;;;;;;4972480;28;20540;-60
2022/12/15 08:41:08;;;;;;;18.05;6.68;;;-4.80;99.90;;;;;;4972213;28;20047;-57
2022/12/15 08:43:36;;;;;;;17.50;6.25;;;-4.70;99.90;;;;;;4951898;29;20434;-60
2022/12/15 08:46:11;;;;;;;19.00;6.68;;;-4.80;99.90;;;;;;4970161;28;20134;-58
2022/12/15 08:48:38;;;;;;;15.18;5.55;;;-4.80;99.90;;;;;;4971143;28;20059;-59
2022/12/15 08:51:06;;;;;;;15.40;6.47;;;-4.80;99.90;;;;;;4971567;28;20141;-60
2022/12/15 08:53:33;;;;;;;11.68;6.35;;;-4.70;99.90;;;;;;4969401;28;20076;-61
2022/12/15 08:56:11;;;;;;;16.63;6.75;;;-4.70;99.90;;;;;;4987438;28;20049;-59
2022/12/15 08:58:38;;;;;;;21.13;6.45;;;-4.60;99.90;;;;;;4971395;28;20540;-60
2022/12/15 09:01:19;;;;;;;16.20;7.32;;;-4.60;99.90;;;;;;4971987;28;20102;-60
2022/12/15 09:03:52;;;;;;;22.70;7.93;;;-4.50;99.90;;;;;;4971547;28;20054;-58
2022/12/15 09:06:24;;;;;;;18.00;7.43;;;-4.40;99.90;;;;;;4971514;28;20057;-60
2022/12/15 09:08:55;;;;;;;27.00;6.22;;;-4.40;99.90;;;;;;4972073;28;20051;-59
2022/12/15 09:11:23;;;;;;;17.77;7.25;;;-4.30;99.90;;;;;;4971627;28;20477;-58
2022/12/15 09:13:50;;;;;;;23.92;6.68;;;-4.30;99.90;;;;;;4971427;28;20133;-57
2022/12/15 09:16:17;;;;;;;17.52;7.57;;;-4.20;99.90;;;;;;4970270;28;20047;-56
2022/12/15 09:18:48;;;;;;;15.30;7.68;;;-4.10;99.90;;;;;;4969921;28;20133;-61
2022/12/15 09:21:15;;;;;;;16.35;6.20;;;-4.10;99.90;;;;;;4968398;28;20046;-58
2022/12/15 09:23:45;;;;;;;16.25;6.13;;;-4.00;99.90;;;;;;4970279;28;20133;-58
2022/12/15 09:26:13;;;;;;;15.65;5.85;;;-4.10;99.90;;;;;;4968719;28;20057;-57
2022/12/15 09:28:40;;;;;;;15.85;7.25;;;-4.00;99.90;;;;;;4970357;28;20051;-62
2022/12/15 09:31:14;;;;;;;18.20;7.10;;;-4.10;99.90;;;;;;4971274;28;20057;-58
2022/12/15 09:33:41;;;;;;;;;;;-4.00;99.90;;;;;;4961536;28;20065;-60
2022/12/15 09:36:08;;;;;;;21.88;6.57;;;-4.00;99.90;;;;;;4970662;28;19930;-58
2022/12/15 09:38:37;;;;;;;19.88;6.75;;;-3.90;99.90;;;;;;4971662;28;20054;-61
2022/12/15 09:41:13;;;;;;;26.08;7.28;;;-3.90;99.90;;;;;;4986794;28;20521;-59
2022/12/15 09:43:49;;;;;;;16.70;7.68;;;-4.00;99.90;;;;;;4971921;28;20065;-60
2022/12/15 09:46:25;;;;;;;21.35;8.20;;;-3.70;99.90;;;;;;4971406;28;20486;-58
2022/12/15 09:48:53;;;;;;;22.73;9.02;;;-3.70;99.90;;;;;;4971675;28;20490;-64
2022/12/15 09:51:20;;;;;;;19.55;7.93;;;-3.60;99.90;;;;;;4971665;28;20059;-58
2022/12/15 09:53:46;;;;;;;20.95;7.22;;;-3.50;99.90;;;;;;4970333;28;20050;-57
2022/12/15 09:56:36;;;;;;;34.33;7.95;;;-3.40;99.90;;;;;;4970249;28;20050;-59
2022/12/15 09:59:25;;;;;;;15.02;8.30;;;-3.40;99.90;;;;;;4970175;28;20055;-58
2022/12/15 10:01:59;;;;;;;14.55;8.20;;;-3.20;99.90;;;;;;4624854;28;10000295;-57
2022/12/15 10:04:36;;;;;;;17.65;7.53;;;-3.20;99.90;;;;;;4967083;28;20500;-59
2022/12/15 10:07:10;;;;;;;21.25;8.52;;;-3.10;99.90;;;;;;4968025;28;20057;-57
2022/12/15 10:09:37;;;;;;;18.23;8.32;;;-3.10;99.90;;;;;;4967293;28;20047;-58
2022/12/15 10:12:16;;;;;;;15.30;8.25;;;-3.00;99.90;;;;;;4967088;28;20062;-56
2022/12/15 10:15:06;;;;;;;17.15;7.63;;;-2.40;99.90;;;;;;4967169;28;20054;-58
2022/12/15 10:17:45;;;;;;;15.93;7.15;;;-3.00;99.90;;;;;;4960824;28;20047;-61
2022/12/15 10:20:20;;;;;;;18.77;8.48;;;-2.90;99.90;;;;;;4957318;28;20069;-59
2022/12/15 10:22:47;;;;;;;17.35;7.82;;;-2.80;99.90;;;;;;4956874;28;20051;-60
2022/12/15 10:25:34;;;;;;;14.63;8.88;;;-2.70;99.90;;;;;;4959748;28;20071;-59
2022/12/15 10:28:28;;;;;;;20.15;8.57;;;-2.60;99.90;;;;;;4968526;28;20093;-61
2022/12/15 10:31:01;;;;;;;19.00;10.15;;;-2.60;99.90;;;;;;4932107;29;20051;-58
2022/12/15 10:33:32;;;;;;;24.60;9.17;;;-2.50;99.90;;;;;;4954624;28;20086;-61
2022/12/15 10:36:00;;;;;;;13.98;8.43;;;-2.50;99.90;;;;;;4958988;28;20133;-59
2022/12/15 10:38:39;;;;;;;18.58;8.27;;;-2.40;99.90;;;;;;4967124;28;20055;-57
2022/12/15 10:41:21;;;;;;;25.20;10.80;;;-2.40;99.90;;;;;;4968165;28;20134;-60
2022/12/15 10:43:52;;;;;;;21.63;10.65;;;-2.30;99.90;;;;;;4966651;28;20047;-60
2022/12/15 10:46:24;;;;;;;20.75;10.02;;;-2.30;99.90;;;;;;4965472;28;20502;-63
2022/12/15 10:48:58;;;;;;;21.50;11.70;;;-2.20;99.90;;;;;;4966364;28;20046;-60
2022/12/15 10:51:43;;;;;;;21.15;9.63;;;-2.20;99.90;;;;;;4981409;28;20491;-59
2022/12/15 10:54:14;;;;;;;17.88;9.38;;;-2.10;99.90;;;;;;4965217;28;20070;-59
2022/12/15 10:56:57;;;;;;;17.80;9.80;;;-2.00;99.90;;;;;;4966980;28;20062;-61
2022/12/15 10:59:27;;;;;;;27.27;10.30;;;-2.00;99.90;;;;;;4966782;28;20081;-61
2022/12/15 11:01:53;;;;;;;19.92;11.10;;;-1.90;99.90;;;;;;4963959;28;20044;-60
2022/12/15 11:04:30;;;;;;;19.08;9.75;;;-1.90;99.90;;;;;;4954484;28;20060;-60
2022/12/15 11:06:59;;;;;;;21.13;9.73;;;-1.80;99.90;;;;;;4969205;28;20050;-59
2022/12/15 11:09:32;;;;;;;17.90;9.38;;;-1.70;99.90;;;;;;4968878;28;20146;-60
2022/12/15 11:14:48;;;;;;;20.88;9.52;;;-1.60;99.90;;;;;;4968740;28;20051;-57
2022/12/15 11:17:21;;;;;;;16.02;8.85;;;-1.60;99.90;;;;;;4986019;28;20086;-58
2022/12/15 11:20:03;;;;;;;17.38;8.90;;;-1.50;99.90;;;;;;4971128;28;20078;-57
2022/12/15 11:22:52;;;;;;;18.85;9.23;;;-1.50;99.90;;;;;;4967674;28;20061;-59
2022/12/15 11:25:28;;;;;;;25.73;9.68;;;-1.40;99.90;;;;;;4967983;28;20442;-60
2022/12/15 11:27:56;;;;;;;22.10;9.80;;;-1.40;99.90;;;;;;4966529;28;20717;-59
2022/12/15 11:30:31;;;;;;;25.10;9.05;;;-1.30;99.90;;;;;;4967340;28;20065;-59
2022/12/15 11:32:59;;;;;;;20.30;10.00;;;-1.20;99.90;;;;;;4959883;28;20059;-58
2022/12/15 11:35:40;;;;;;;26.27;9.68;;;-1.20;99.90;;;;;;4966086;28;20482;-59
2022/12/15 11:38:18;;;;;;;24.67;11.00;;;-1.10;99.90;;;;;;4966276;28;20134;-58
2022/12/15 11:40:45;;;;;;;17.10;8.52;;;-1.00;99.90;;;;;;4965961;28;20057;-59
2022/12/15 11:43:34;;;;;;;25.50;10.90;;;-1.00;99.90;;;;;;4965971;28;20493;-58
2022/12/15 11:46:17;;;;;;;18.20;9.00;;;-1.00;99.90;;;;;;4966930;28;20061;-58
2022/12/15 11:49:06;;;;;;;28.42;10.23;;;-1.00;99.90;;;;;;4967275;28;20057;-59
2022/12/15 11:51:41;;;;;;;22.85;10.18;;;-0.90;99.90;;;;;;4965966;28;20310;-59
2022/12/15 11:54:45;;;;;;;18.13;9.50;;;-0.70;99.90;;;;;;4966153;28;20077;-59
2022/12/15 11:57:48;;;;;;;19.25;8.05;;;-0.80;99.90;;;;;;4936787;28;20378;-58
2022/12/15 12:00:20;;;;;;;20.98;10.27;;;-0.70;99.90;;;;;;4966908;28;20174;-59
2022/12/15 12:03:08;;;;;;;20.52;9.32;;;-0.70;99.90;;;;;;4952020;28;20059;-60
2022/12/15 12:05:44;;;;;;;28.00;10.68;;;-0.60;99.90;;;;;;4967215;28;20057;-58
2022/12/15 12:08:17;;;;;;;18.45;9.15;;;-0.40;99.90;;;;;;4961216;28;20053;-58
2022/12/15 12:11:20;;;;;;;22.58;9.52;;;-0.50;99.90;;;;;;4981550;28;20143;-58
2022/12/15 12:13:47;;;;;;;19.83;8.63;;;-0.50;99.90;;;;;;4962096;28;20636;-59
2022/12/15 12:16:46;;;;;;;15.15;8.48;;;-0.40;99.90;;;;;;4966447;28;20497;-60
2022/12/15 12:19:31;;;;;;;24.15;8.55;;;-0.40;99.90;;;;;;4955467;28;20054;-59
2022/12/15 12:22:03;;;;;;;14.75;8.40;;;-0.30;99.90;;;;;;4965236;28;20051;-59
2022/12/15 12:24:35;;;;;;;19.38;7.78;;;-0.30;99.90;;;;;;4965590;28;20166;-58
2022/12/15 12:27:48;;;;;;;16.25;9.00;;;-0.30;99.90;;;;;;4966304;28;20387;-60
2022/12/15 12:30:20;;;;;;;16.33;8.98;;;-0.20;99.90;;;;;;4946730;28;20086;-61
2022/12/15 12:33:03;;;;;;;21.98;9.77;;;-0.20;99.90;;;;;;4965880;28;20062;-60
2022/12/15 12:35:46;;;;;;;17.70;7.93;;;-0.10;99.90;;;;;;4965329;28;20051;-61
2022/12/15 12:38:14;;;;;;;;;;;-0.10;99.90;;;;;;4967077;28;20133;-60
2022/12/15 12:40:58;;;;;;;19.55;8.57;;;0.70;99.90;;;;;;4965355;28;19933;-60
2022/12/15 12:43:36;;;;;;;22.08;8.40;;;-0.10;99.90;;;;;;4965211;28;20051;-60
2022/12/15 12:46:16;;;;;;;20.88;8.25;;;0.00;99.90;;;;;;4965158;28;20079;-59
2022/12/15 12:49:07;;;;;;;16.85;7.60;;;0.00;99.90;;;;;;4965238;28;20054;-61
2022/12/15 12:51:52;;;;;;;20.45;7.88;;;0.10;99.90;;;;;;4947017;28;20055;-60
2022/12/15 12:54:37;;;;;;;16.83;7.38;;;0.10;99.90;;;;;;4977909;28;20059;-61
2022/12/15 12:57:13;;;;;;;20.80;7.38;;;0.10;99.90;;;;;;4966528;28;20504;-60
2022/12/15 12:59:40;;;;;;;16.85;8.07;;;0.20;99.90;;;;;;4966534;28;20090;-61
2022/12/15 13:02:13;;;;;;;16.90;8.82;;;0.20;99.90;;;;;;4964550;28;20055;-60
2022/12/15 13:04:42;;;;;;;23.08;7.75;;;0.20;99.90;;;;;;4966038;28;20054;-60
2022/12/15 13:07:28;;;;;;;20.77;9.45;;;0.30;99.90;;;;;;4965144;28;20557;-60
2022/12/15 13:10:15;;;;;;;15.98;8.60;;;0.30;99.90;;;;;;4967986;28;20050;-61
2022/12/15 13:12:47;;;;;;;16.38;8.75;;;0.30;99.90;;;;;;4969777;28;20090;-60
2022/12/15 13:15:28;;;;;;;17.63;8.13;;;0.40;99.90;;;;;;4969374;28;20058;-60
2022/12/15 13:17:59;;;;;;;20.90;8.43;;;0.40;99.90;;;;;;4969767;28;20058;-59
2022/12/15 13:20:29;;;;;;;16.88;9.20;;;0.50;99.90;;;;;;4968503;28;20058;-60
2022/12/15 13:23:16;;;;;;;17.25;9.27;;;0.50;99.90;;;;;;4968707;28;20113;-61
2022/12/15 13:25:43;;;;;;;17.50;9.02;;;0.50;99.90;;;;;;4969347;28;20070;-60
2022/12/15 13:28:37;;;;;;;20.60;8.70;;;0.50;99.90;;;;;;4968492;28;20291;-59
2022/12/15 13:31:17;;;;;;;18.17;8.90;;;0.60;99.90;;;;;;4968989;28;20404;-59
2022/12/15 13:33:53;;;;;;;14.70;7.57;;;0.60;99.90;;;;;;4969182;28;20059;-59
2022/12/15 13:36:38;;;;;;;20.88;8.90;;;0.60;99.90;;;;;;4966363;28;20061;-60
2022/12/15 13:39:11;;;;;;;14.85;8.82;;;0.60;99.90;;;;;;4968863;28;20090;-59
2022/12/15 13:41:40;;;;;;;21.52;8.85;;;0.70;99.90;;;;;;4969121;28;20078;-60
2022/12/15 13:44:45;;;;;;;20.42;9.85;;;0.70;99.90;;;;;;4968033;28;20043;-60
2022/12/15 13:47:15;;;;;;;25.23;10.43;;;0.70;99.90;;;;;;4968030;28;20078;-60
2022/12/15 13:50:05;;;;;;;16.70;9.10;;;0.70;99.90;;;;;;4967937;28;20054;-59
2022/12/15 13:52:38;;;;;;;19.30;9.52;;;0.80;99.90;;;;;;4969194;28;20057;-60
2022/12/15 13:55:28;;;;;;;18.73;8.88;;;0.80;99.90;;;;;;4967868;28;20379;-60
2022/12/15 13:58:06;;;;;;;18.27;8.10;;;0.80;99.90;;;;;;4967821;28;20510;-61
2022/12/15 14:00:32;;;;;;;24.42;8.63;;;0.80;99.90;;;;;;4969204;28;20050;-61
2022/12/15 14:03:10;;;;;;;17.40;7.88;;;0.90;99.90;;;;;;4624046;28;10000263;-61
2022/12/15 14:05:38;;;;;;;25.75;8.23;;;0.90;99.90;;;;;;4971226;28;20374;-61
2022/12/15 14:08:14;;;;;;;19.63;7.93;;;1.00;99.90;;;;;;4970402;28;20054;-60
2022/12/15 14:10:54;;;;;;;27.17;7.90;;;1.00;99.90;;;;;;4970043;28;20081;-59
2022/12/15 14:13:32;;;;;;;16.45;7.88;;;1.00;99.90;;;;;;4969830;28;20078;-60
2022/12/15 14:16:11;;;;;;;15.73;7.35;;;1.00;99.90;;;;;;4969716;28;20047;-60
2022/12/15 14:18:41;;;;;;;15.85;7.70;;;1.00;99.90;;;;;;4970544;28;20053;-59
2022/12/15 14:21:23;;;;;;;15.93;6.97;;;1.00;99.90;;;;;;4969143;28;20062;-62
2022/12/15 14:23:49;;;;;;;12.32;6.38;;;1.00;99.90;;;;;;4986117;28;20042;-60
2022/12/15 14:26:36;;;;;;;12.05;6.18;;;1.10;99.90;;;;;;4970947;28;20051;-60
2022/12/15 14:29:05;;;;;;;18.42;6.50;;;1.10;99.90;;;;;;4970829;28;20058;-60
2022/12/15 14:31:31;;;;;;;19.27;5.97;;;1.10;99.90;;;;;;4970132;28;20047;-60
2022/12/15 14:34:02;;;;;;;16.73;5.60;;;1.10;99.90;;;;;;4985251;28;20065;-59
2022/12/15 14:36:29;;;;;;;16.75;5.97;;;1.10;99.90;;;;;;4969319;28;20486;-60
2022/12/15 14:39:00;;;;;;;17.85;5.15;;;1.10;99.90;;;;;;4969638;28;20140;-59
2022/12/15 14:41:28;;;;;;;8.32;3.90;;;1.10;99.90;;;;;;4970347;28;20514;-60
2022/12/15 14:44:31;;;;;;;8.13;4.00;;;1.20;99.90;;;;;;4970787;28;20043;-59
2022/12/15 14:47:28;;;;;;;9.68;4.13;;;1.10;99.90;;;;;;4970528;28;20387;-59
2022/12/15 14:49:56;;;;;;;11.63;4.75;;;1.10;99.90;;;;;;4969539;28;20057;-59
2022/12/15 14:52:27;;;;;;;13.60;4.05;;;1.10;99.90;;;;;;4960325;28;20049;-59
2022/12/15 14:54:56;;;;;;;10.00;3.80;;;1.10;99.90;;;;;;4969269;28;20093;-60
2022/12/15 14:57:36;;;;;;;14.30;3.85;;;1.10;99.90;;;;;;4970086;28;20094;-61
2022/12/15 15:00:25;;;;;;;14.07;4.90;;;1.00;99.90;;;;;;4969132;28;20412;-61
2022/12/15 15:03:14;;;;;;;7.80;4.20;;;1.00;99.90;;;;;;4968810;28;20046;-60
2022/12/15 15:05:47;;;;;;;13.30;4.28;;;1.00;99.90;;;;;;4969184;28;20140;-61
2022/12/15 15:08:22;;;;;;;9.82;4.22;;;0.90;99.90;;;;;;4969089;28;20054;-61
2022/12/15 15:10:49;;;;;;;11.32;6.03;;;1.00;99.90;;;;;;4961226;28;20070;-61
2022/12/15 15:13:21;;;;;;;15.32;5.03;;;0.90;99.90;;;;;;4960990;28;20047;-60
2022/12/15 15:15:54;;;;;;;14.15;5.68;;;0.90;99.90;;;;;;4970223;28;20383;-60
2022/12/15 15:18:23;;;;;;;20.42;5.07;;;1.10;99.90;;;;;;4968780;28;20043;-60
2022/12/15 15:20:55;;;;;;;11.02;4.95;;;0.90;99.90;;;;;;4970373;28;20101;-59
2022/12/15 15:23:22;;;;;;;13.02;4.85;;;0.90;99.90;;;;;;4970449;28;20049;-60
2022/12/15 15:25:55;;;;;;;11.02;4.80;;;0.90;99.90;;;;;;4971953;28;20047;-60
2022/12/15 15:28:40;;;;;;;9.77;4.80;;;0.80;99.90;;;;;;4966519;28;20046;-63
2022/12/15 15:31:29;;;;;;;7.30;3.55;;;0.80;99.90;;;;;;4956800;28;20126;-60
2022/12/15 15:34:05;;;;;;;18.63;4.10;;;0.80;99.90;;;;;;4961304;28;20101;-60